Time;durP1;ratioP1;P1;durP2;ratioP2;P2;SDS_P1;SDS_P2;PMS_P1;PMS_P2;Temp;Humidity;BMP_temperature;BMP_pressure;BME280_temperature;BME280_humidity;BME280_pressure;Samples;Min_cycle;Max_cycle;Signal;HPM_P1;HPM_P2
2024/01/12 00:01:29;;;;;;;31.10;18.60;;;-3.80;65.70;;;;;;5041289;28;20229;-60
2024/01/12 00:03:55;;;;;;;27.37;17.33;;;-3.70;65.60;;;;;;5049539;28;20197;-61
2024/01/12 00:06:22;;;;;;;31.80;17.97;;;-3.80;65.20;;;;;;5042947;28;20342;-58
2024/01/12 00:08:48;;;;;;;29.30;17.13;;;-3.90;65.30;;;;;;5049107;28;20198;-60
2024/01/12 00:11:15;;;;;;;32.50;18.43;;;-3.70;65.60;;;;;;5047770;28;20194;-60
2024/01/12 00:13:42;;;;;;;31.37;18.90;;;-3.60;64.90;;;;;;5045427;28;20278;-58
2024/01/12 00:16:08;;;;;;;28.93;17.73;;;-3.70;64.90;;;;;;5048968;28;20253;-59
2024/01/12 00:18:35;;;;;;;29.93;20.20;;;-3.80;65.40;;;;;;5041879;28;20256;-61
2024/01/12 00:21:01;;;;;;;31.33;18.90;;;-3.90;65.40;;;;;;5043975;28;20291;-58
2024/01/12 00:23:28;;;;;;;31.97;19.40;;;-3.80;65.50;;;;;;5043131;28;20263;-59
2024/01/12 00:25:58;;;;;;;30.77;18.50;;;-3.90;65.80;;;;;;5043001;28;20229;-59
2024/01/12 00:28:25;;;;;;;28.33;18.90;;;-3.90;65.80;;;;;;5042701;28;20233;-59
2024/01/12 00:30:51;;;;;;;33.57;18.63;;;-3.80;65.80;;;;;;5041038;28;20210;-61
2024/01/12 00:33:18;;;;;;;28.67;17.80;;;-3.80;65.80;;;;;;5042319;28;20215;-59
2024/01/12 00:35:44;;;;;;;27.50;19.00;;;-3.80;65.80;;;;;;5036113;28;20252;-60
2024/01/12 00:38:11;;;;;;;31.63;18.83;;;-3.90;65.90;;;;;;5037187;28;20209;-59
2024/01/12 00:40:37;;;;;;;30.13;18.83;;;-3.80;65.50;;;;;;5041172;28;20248;-58
2024/01/12 00:43:04;;;;;;;30.67;17.77;;;-3.80;65.60;;;;;;5043782;28;20209;-61
2024/01/12 00:45:31;;;;;;;27.10;17.97;;;-3.80;65.00;;;;;;5042829;28;20230;-59
2024/01/12 00:47:57;;;;;;;30.47;18.37;;;-3.90;65.50;;;;;;5046069;28;20725;-59
2024/01/12 00:50:23;;;;;;;31.73;18.97;;;-3.80;66.10;;;;;;5046063;28;20202;-59
2024/01/12 00:52:50;;;;;;;29.60;18.23;;;-3.80;65.60;;;;;;5034297;28;20692;-60
2024/01/12 00:55:16;;;;;;;30.57;17.63;;;-3.90;66.10;;;;;;5042493;28;20287;-59
2024/01/12 00:57:43;;;;;;;27.63;18.37;;;-3.80;66.30;;;;;;5040423;28;20640;-60
2024/01/12 01:00:09;;;;;;;26.50;17.93;;;-3.90;67.30;;;;;;5043749;28;20243;-59
2024/01/12 01:02:36;;;;;;;32.03;19.13;;;-3.80;67.90;;;;;;5049736;28;20210;-60
2024/01/12 01:05:03;;;;;;;31.83;19.10;;;-3.80;68.20;;;;;;5038666;28;20285;-61
2024/01/12 01:07:29;;;;;;;33.43;20.07;;;-3.80;68.70;;;;;;5047408;28;20232;-60
2024/01/12 01:09:55;;;;;;;34.70;19.37;;;-4.00;69.50;;;;;;5039284;28;20253;-57
2024/01/12 01:12:22;;;;;;;35.80;20.37;;;-3.90;70.00;;;;;;5037886;28;20268;-60
2024/01/12 01:14:49;;;;;;;34.00;19.80;;;-4.00;70.30;;;;;;5039284;28;20206;-56
2024/01/12 01:17:15;;;;;;;35.17;21.30;;;-3.90;71.20;;;;;;5039214;28;20210;-61
2024/01/12 01:19:42;;;;;;;31.77;18.37;;;-3.80;70.80;;;;;;5040824;28;20206;-61
2024/01/12 01:22:08;;;;;;;35.97;19.80;;;-3.70;70.30;;;;;;5038833;28;20717;-61
2024/01/12 01:24:35;;;;;;;39.97;20.33;;;-3.60;70.30;;;;;;5048805;28;20227;-61
2024/01/12 01:27:02;;;;;;;36.20;20.60;;;-3.70;69.70;;;;;;5042658;28;20284;-58
2024/01/12 01:29:28;;;;;;;34.07;19.33;;;-3.70;70.10;;;;;;5041976;28;20206;-61
2024/01/12 01:31:55;;;;;;;35.30;21.03;;;-3.70;70.60;;;;;;5045933;28;20210;-61
2024/01/12 01:34:21;;;;;;;36.90;21.63;;;-3.60;70.40;;;;;;5046002;28;20210;-60
2024/01/12 01:36:48;;;;;;;32.03;18.73;;;-3.60;70.00;;;;;;5043291;28;20226;-58
2024/01/12 01:39:14;;;;;;;34.27;20.23;;;-3.60;69.80;;;;;;5047616;28;20202;-61
2024/01/12 01:41:41;;;;;;;33.50;20.27;;;-3.70;70.20;;;;;;5050308;28;20724;-60
2024/01/12 01:44:08;;;;;;;35.73;19.93;;;-3.50;69.90;;;;;;5042640;28;20207;-60
2024/01/12 01:46:34;;;;;;;29.27;17.23;;;-3.60;70.00;;;;;;5044270;28;20655;-60
2024/01/12 01:49:01;;;;;;;27.27;16.63;;;-3.60;69.40;;;;;;5045805;28;20240;-61
2024/01/12 01:51:27;;;;;;;26.57;16.70;;;-3.50;69.50;;;;;;5045265;28;20267;-59
2024/01/12 01:53:54;;;;;;;26.67;16.73;;;-3.50;69.20;;;;;;5042584;28;20214;-60
2024/01/12 01:56:22;;;;;;;28.93;18.10;;;-3.50;69.20;;;;;;5046774;28;20222;-60
2024/01/12 01:58:49;;;;;;;25.87;17.30;;;-3.50;69.00;;;;;;5053202;28;20206;-59
2024/01/12 02:01:15;;;;;;;31.70;19.07;;;-3.40;69.10;;;;;;5041175;28;20223;-60
2024/01/12 02:03:42;;;;;;;32.10;18.23;;;-3.30;68.80;;;;;;5051991;28;20216;-60
2024/01/12 02:06:08;;;;;;;34.80;20.47;;;-3.30;68.90;;;;;;5042305;28;20226;-60
2024/01/12 02:08:35;;;;;;;38.93;22.43;;;-3.30;68.80;;;;;;5044589;28;20264;-60
2024/01/12 02:11:01;;;;;;;37.33;21.50;;;-3.30;69.40;;;;;;5046835;28;20264;-60
2024/01/12 02:13:28;;;;;;;37.10;20.77;;;-3.30;69.10;;;;;;5041811;28;20216;-62
2024/01/12 02:15:54;;;;;;;37.43;20.30;;;-3.30;69.50;;;;;;5049631;28;20226;-58
2024/01/12 02:18:21;;;;;;;39.47;22.50;;;-3.30;70.00;;;;;;5041906;28;20214;-59
2024/01/12 02:20:48;;;;;;;35.97;21.23;;;-3.30;69.60;;;;;;5050420;28;20272;-59
2024/01/12 02:23:14;;;;;;;36.70;22.23;;;-3.40;69.50;;;;;;5047338;28;20264;-62
2024/01/12 02:25:44;;;;;;;41.93;22.73;;;-3.40;70.00;;;;;;5043526;28;20654;-60
2024/01/12 02:28:10;;;;;;;40.10;21.40;;;-3.40;70.30;;;;;;5045315;28;20206;-60
2024/01/12 02:30:37;;;;;;;38.57;20.87;;;-3.40;70.80;;;;;;5044813;28;20202;-60
2024/01/12 02:33:03;;;;;;;39.50;21.33;;;-3.40;70.20;;;;;;5040170;28;20210;-57
2024/01/12 02:35:30;;;;;;;29.23;19.73;;;-3.40;70.40;;;;;;5046007;28;20225;-56
2024/01/12 02:37:56;;;;;;;37.33;20.87;;;-3.40;70.20;;;;;;5037259;28;20210;-58
2024/01/12 02:40:23;;;;;;;28.40;19.37;;;-3.50;70.30;;;;;;5044896;28;20626;-61
2024/01/12 02:42:50;;;;;;;36.00;20.77;;;-3.50;70.20;;;;;;5050877;28;20230;-59
2024/01/12 02:45:16;;;;;;;32.67;19.57;;;-3.40;69.50;;;;;;5043116;28;20225;-58
2024/01/12 02:47:43;;;;;;;30.53;18.60;;;-3.50;69.40;;;;;;5036222;28;20218;-59
2024/01/12 02:50:09;;;;;;;28.80;18.43;;;-3.50;69.20;;;;;;5043705;28;20248;-59
2024/01/12 02:52:36;;;;;;;24.97;16.17;;;-3.60;69.30;;;;;;5045773;28;20248;-60
2024/01/12 02:55:03;;;;;;;28.67;18.63;;;-3.60;69.40;;;;;;5044243;28;20256;-58
2024/01/12 02:57:30;;;;;;;28.47;17.37;;;-3.50;68.90;;;;;;5043928;28;20201;-61
2024/01/12 02:59:56;;;;;;;31.53;19.13;;;-3.50;69.00;;;;;;5040828;28;20206;-61
2024/01/12 03:02:23;;;;;;;29.70;17.43;;;-3.60;68.70;;;;;;5048169;28;20280;-59
2024/01/12 03:04:49;;;;;;;26.60;17.67;;;-3.50;69.10;;;;;;5052304;28;20209;-58
2024/01/12 03:07:16;;;;;;;24.37;16.67;;;-3.50;69.20;;;;;;5051794;28;20627;-58
2024/01/12 03:09:42;;;;;;;26.17;16.80;;;-3.50;68.50;;;;;;5050095;28;20202;-60
2024/01/12 03:12:09;;;;;;;28.73;17.97;;;-3.50;68.90;;;;;;5046133;28;20739;-59
2024/01/12 03:14:35;;;;;;;26.93;16.17;;;-3.50;68.60;;;;;;5047309;28;20205;-59
2024/01/12 03:17:02;;;;;;;26.10;16.70;;;-3.50;68.70;;;;;;5040826;28;20759;-58
2024/01/12 03:19:28;;;;;;;28.50;17.87;;;-3.60;69.00;;;;;;5041145;28;20206;-60
2024/01/12 03:21:55;;;;;;;27.60;17.00;;;-3.60;69.40;;;;;;5050254;28;20299;-61
2024/01/12 03:24:21;;;;;;;27.57;17.37;;;-3.70;69.50;;;;;;5044513;28;20210;-56
2024/01/12 03:26:48;;;;;;;30.40;17.60;;;-3.70;69.50;;;;;;5043064;28;20226;-59
2024/01/12 03:29:14;;;;;;;26.73;17.53;;;-3.60;69.30;;;;;;5043651;28;20673;-58
2024/01/12 03:31:41;;;;;;;28.20;17.30;;;-3.60;69.50;;;;;;5035525;28;20694;-58
2024/01/12 03:34:07;;;;;;;28.07;18.07;;;-3.70;69.50;;;;;;5045913;28;20210;-60
2024/01/12 03:36:34;;;;;;;28.27;17.87;;;-3.70;69.70;;;;;;5047307;28;20218;-59
2024/01/12 03:39:00;;;;;;;29.03;18.07;;;-3.70;70.00;;;;;;5043445;28;20214;-58
2024/01/12 03:41:27;;;;;;;29.83;17.20;;;-3.70;70.20;;;;;;5045683;28;20277;-58
2024/01/12 03:43:53;;;;;;;32.23;17.40;;;-3.80;70.30;;;;;;5035274;28;20228;-60
2024/01/12 03:46:20;;;;;;;32.60;18.33;;;-3.70;70.70;;;;;;5043135;28;20655;-61
2024/01/12 03:48:46;;;;;;;30.27;17.60;;;-3.80;70.40;;;;;;5040510;28;20665;-58
2024/01/12 03:51:13;;;;;;;29.33;17.73;;;-3.80;70.40;;;;;;5043394;28;20715;-60
2024/01/12 03:53:40;;;;;;;30.27;18.17;;;-3.80;70.50;;;;;;5038340;28;20289;-59
2024/01/12 03:56:06;;;;;;;27.87;17.67;;;-3.70;70.50;;;;;;5045398;28;20234;-61
2024/01/12 03:58:33;;;;;;;28.20;16.67;;;-3.70;70.30;;;;;;5042355;28;20206;-59
2024/01/12 04:00:59;;;;;;;30.07;18.27;;;-3.60;69.70;;;;;;5044697;28;20217;-58
2024/01/12 04:03:26;;;;;;;28.57;17.90;;;-3.70;70.20;;;;;;5037538;28;20206;-59
2024/01/12 04:05:52;;;;;;;27.83;18.00;;;-3.70;70.60;;;;;;5048912;28;20240;-58
2024/01/12 04:08:19;;;;;;;28.67;17.43;;;-3.70;70.80;;;;;;5041061;28;20261;-61
2024/01/12 04:10:45;;;;;;;29.83;16.80;;;-3.60;70.10;;;;;;5050075;28;20198;-58
2024/01/12 04:13:12;;;;;;;28.33;17.30;;;-3.60;70.00;;;;;;5043135;28;20295;-60
2024/01/12 04:15:38;;;;;;;29.10;16.60;;;-3.60;70.00;;;;;;5034784;28;20288;-59
2024/01/12 04:18:05;;;;;;;33.53;18.07;;;-3.60;70.00;;;;;;5043619;28;20213;-58
2024/01/12 04:20:31;;;;;;;32.43;18.80;;;-3.60;69.90;;;;;;5041852;28;20206;-60
2024/01/12 04:22:58;;;;;;;30.13;17.37;;;-3.60;70.00;;;;;;5047129;28;20226;-60
2024/01/12 04:25:24;;;;;;;33.43;18.30;;;-3.60;70.10;;;;;;5043434;28;20225;-60
2024/01/12 04:27:51;;;;;;;27.80;17.57;;;-3.60;70.10;;;;;;5037673;28;20206;-59
2024/01/12 04:30:17;;;;;;;33.13;17.60;;;-3.70;70.60;;;;;;5051347;28;20593;-59
2024/01/12 04:32:44;;;;;;;30.07;18.13;;;-3.60;70.50;;;;;;5049756;28;20343;-60
2024/01/12 04:35:11;;;;;;;29.00;17.53;;;-3.60;70.20;;;;;;5046136;28;20287;-61
2024/01/12 04:37:37;;;;;;;31.10;17.47;;;-3.60;70.30;;;;;;5049655;28;20206;-61
2024/01/12 04:40:04;;;;;;;29.73;17.07;;;-3.60;70.20;;;;;;5039571;28;20210;-59
2024/01/12 04:42:30;;;;;;;29.07;16.43;;;-3.60;69.50;;;;;;5039228;28;20272;-57
2024/01/12 04:44:57;;;;;;;26.57;16.10;;;-3.60;69.30;;;;;;5039430;28;20301;-59
2024/01/12 04:47:23;;;;;;;27.30;15.53;;;-3.50;68.40;;;;;;5047268;28;20214;-60
2024/01/12 04:49:50;;;;;;;26.10;16.03;;;-3.60;68.30;;;;;;5040294;28;20215;-59
2024/01/12 04:52:17;;;;;;;24.57;16.80;;;-3.60;67.80;;;;;;5044424;28;20271;-59
2024/01/12 04:54:43;;;;;;;24.50;15.47;;;-3.50;67.80;;;;;;5034440;28;20211;-60
2024/01/12 04:57:10;;;;;;;26.83;16.53;;;-3.50;68.00;;;;;;5043253;28;20205;-59
2024/01/12 04:59:36;;;;;;;24.90;16.37;;;-3.60;67.70;;;;;;5045530;28;20267;-59
2024/01/12 05:02:03;;;;;;;27.07;16.30;;;-3.60;68.00;;;;;;5046039;28;20234;-61
2024/01/12 05:04:29;;;;;;;26.43;15.47;;;-3.50;68.20;;;;;;5054318;28;20209;-61
2024/01/12 05:06:56;;;;;;;29.13;17.63;;;-3.50;68.10;;;;;;5050180;28;20218;-61
2024/01/12 05:09:22;;;;;;;30.33;18.57;;;-3.50;67.80;;;;;;5047351;28;20198;-61
2024/01/12 05:11:49;;;;;;;31.73;18.50;;;-3.50;67.40;;;;;;5038617;28;20557;-60
2024/01/12 05:14:16;;;;;;;34.37;17.87;;;-3.50;67.70;;;;;;5047720;28;20297;-60
2024/01/12 05:16:42;;;;;;;28.57;18.47;;;-3.60;67.90;;;;;;5042921;28;20636;-58
2024/01/12 05:19:08;;;;;;;33.93;20.27;;;-3.60;68.40;;;;;;5043212;28;20229;-60
2024/01/12 05:21:34;;;;;;;31.07;18.63;;;-3.70;68.50;;;;;;5051470;28;20233;-59
2024/01/12 05:24:01;;;;;;;33.80;19.03;;;-3.60;68.50;;;;;;5049651;28;20208;-59
2024/01/12 05:26:27;;;;;;;30.70;18.50;;;-3.70;68.30;;;;;;5049646;28;20649;-59
2024/01/12 05:28:54;;;;;;;34.83;19.67;;;-3.60;68.40;;;;;;5042084;28;20225;-57
2024/01/12 05:31:20;;;;;;;32.60;18.67;;;-3.70;68.70;;;;;;5045958;28;20742;-60
2024/01/12 05:33:47;;;;;;;34.77;19.10;;;-3.70;69.00;;;;;;5043071;28;20918;-60
2024/01/12 05:36:13;;;;;;;32.90;20.03;;;-3.80;69.10;;;;;;5048030;28;20228;-62
2024/01/12 05:38:40;;;;;;;33.97;19.57;;;-3.80;69.10;;;;;;5053571;28;20571;-60
2024/01/12 05:41:06;;;;;;;34.40;19.17;;;-3.70;69.20;;;;;;5054031;28;20215;-59
2024/01/12 05:43:33;;;;;;;32.10;19.70;;;-3.80;69.30;;;;;;5045742;28;20309;-56
2024/01/12 05:45:59;;;;;;;34.87;19.63;;;-3.70;69.20;;;;;;5043560;28;20735;-61
2024/01/12 05:48:26;;;;;;;35.43;20.17;;;-3.80;69.10;;;;;;5048697;28;20233;-62
2024/01/12 05:50:52;;;;;;;34.60;19.43;;;-3.80;69.20;;;;;;5051575;28;20309;-58
2024/01/12 05:53:21;;;;;;;33.47;19.17;;;-3.90;69.10;;;;;;5046933;28;20203;-58
2024/01/12 05:55:48;;;;;;;31.97;19.37;;;-3.80;69.80;;;;;;5053150;28;20245;-60
2024/01/12 05:58:14;;;;;;;30.47;19.47;;;-3.80;69.60;;;;;;5046506;28;20213;-61
2024/01/12 06:00:42;;;;;;;36.13;20.97;;;-3.70;69.50;;;;;;5045394;28;20242;-60
2024/01/12 06:03:08;;;;;;;32.00;19.93;;;-3.80;69.60;;;;;;5045349;28;20225;-61
2024/01/12 06:05:35;;;;;;;34.30;19.30;;;-3.60;69.30;;;;;;5044154;28;20257;-60
2024/01/12 06:08:01;;;;;;;34.63;20.63;;;-3.70;69.30;;;;;;5042576;28;20217;-59
2024/01/12 06:10:28;;;;;;;34.47;21.00;;;-3.80;69.10;;;;;;5044887;28;20283;-59
2024/01/12 06:12:54;;;;;;;34.17;19.27;;;-3.70;69.70;;;;;;5049569;28;20242;-59
2024/01/12 06:15:21;;;;;;;34.30;20.07;;;-3.80;69.60;;;;;;5042012;28;20226;-59
2024/01/12 06:17:48;;;;;;;34.23;19.40;;;-3.80;69.60;;;;;;5042546;28;20276;-60
2024/01/12 06:20:15;;;;;;;33.80;20.53;;;-3.80;69.60;;;;;;5039826;28;20252;-61
2024/01/12 06:22:41;;;;;;;34.00;18.57;;;-3.70;69.70;;;;;;5045225;28;20667;-61
2024/01/12 06:25:08;;;;;;;33.97;19.93;;;-3.80;69.60;;;;;;5044873;28;20279;-60
2024/01/12 06:27:34;;;;;;;32.03;19.27;;;-3.90;69.80;;;;;;5036740;28;20543;-57
2024/01/12 06:30:01;;;;;;;35.47;20.30;;;-3.80;69.80;;;;;;5048369;28;20246;-60
2024/01/12 06:32:27;;;;;;;33.93;20.27;;;-3.80;69.90;;;;;;5041329;28;20882;-60
2024/01/12 06:34:54;;;;;;;34.57;18.43;;;-3.90;69.80;;;;;;5048794;28;20242;-59
2024/01/12 06:37:20;;;;;;;32.63;19.03;;;-3.90;70.20;;;;;;5048280;28;20752;-59
2024/01/12 06:39:48;;;;;;;32.80;19.70;;;-3.90;70.10;;;;;;5044695;28;20225;-60
2024/01/12 06:42:14;;;;;;;32.40;18.17;;;-3.90;71.00;;;;;;5044744;28;20313;-60
2024/01/12 06:44:41;;;;;;;37.77;21.40;;;-3.80;71.60;;;;;;5039268;28;20202;-59
2024/01/12 06:47:08;;;;;;;34.60;20.80;;;-3.60;71.90;;;;;;5052714;28;20205;-58
2024/01/12 06:49:34;;;;;;;38.27;22.97;;;-3.50;71.90;;;;;;5041922;28;20578;-61
2024/01/12 06:52:01;;;;;;;45.27;26.07;;;-3.50;70.90;;;;;;5048856;28;20264;-60
2024/01/12 06:54:27;;;;;;;36.60;21.83;;;-3.50;70.60;;;;;;5049708;28;20200;-58
2024/01/12 06:56:56;;;;;;;35.03;20.70;;;-3.60;69.90;;;;;;5040980;28;20230;-60
2024/01/12 06:59:23;;;;;;;39.43;20.13;;;-3.70;69.30;;;;;;5041201;28;20242;-59
2024/01/12 07:01:50;;;;;;;33.30;20.73;;;-3.70;69.60;;;;;;5048382;28;20207;-60
2024/01/12 07:04:16;;;;;;;32.87;20.37;;;-3.80;69.90;;;;;;5049864;28;20217;-60
2024/01/12 07:06:43;;;;;;;34.10;18.60;;;-3.70;70.40;;;;;;5042315;28;20250;-59
2024/01/12 07:09:12;;;;;;;30.90;19.10;;;-3.70;69.70;;;;;;5036679;28;20211;-62
2024/01/12 07:11:38;;;;;;;32.97;19.47;;;-3.80;69.50;;;;;;5042371;28;20210;-60
2024/01/12 07:14:05;;;;;;;35.80;21.20;;;-3.80;69.90;;;;;;5044214;28;20233;-58
2024/01/12 07:16:32;;;;;;;33.30;21.67;;;-3.80;69.50;;;;;;5040875;28;20230;-60
2024/01/12 07:18:58;;;;;;;33.20;19.30;;;-3.80;69.90;;;;;;5040958;28;20585;-60
2024/01/12 07:21:25;;;;;;;37.43;20.97;;;-3.70;69.80;;;;;;5039713;28;20206;-59
2024/01/12 07:23:52;;;;;;;33.20;19.67;;;-3.70;69.20;;;;;;5043439;28;20272;-60
2024/01/12 07:26:19;;;;;;;31.87;19.37;;;-3.80;69.10;;;;;;5045224;28;20701;-59
2024/01/12 07:28:45;;;;;;;34.87;20.30;;;-3.90;69.80;;;;;;5042734;28;20238;-59
2024/01/12 07:31:11;;;;;;;35.07;20.80;;;-3.90;69.90;;;;;;5051872;28;20688;-59
2024/01/12 07:33:38;;;;;;;33.33;19.77;;;-3.80;70.10;;;;;;5043563;28;20198;-59
2024/01/12 07:36:04;;;;;;;35.03;20.27;;;-3.70;70.00;;;;;;5040789;28;20242;-60
2024/01/12 07:38:31;;;;;;;41.70;19.57;;;-3.70;69.60;;;;;;5048468;28;20210;-61
2024/01/12 07:40:57;;;;;;;34.33;19.27;;;-3.70;69.20;;;;;;5043950;28;20225;-59
2024/01/12 07:43:26;;;;;;;32.53;19.70;;;-3.70;69.00;;;;;;5043545;28;20292;-58
2024/01/12 07:45:53;;;;;;;34.10;20.27;;;-3.70;69.10;;;;;;5034405;28;20218;-60
2024/01/12 07:48:19;;;;;;;33.77;18.87;;;-3.60;68.90;;;;;;5045056;28;20226;-59
2024/01/12 07:50:46;;;;;;;32.77;19.63;;;-3.60;68.50;;;;;;5040523;28;20240;-61
2024/01/12 07:53:12;;;;;;;37.67;20.63;;;-3.60;68.60;;;;;;5043457;28;20665;-58
2024/01/12 07:55:39;;;;;;;31.90;17.77;;;-3.60;68.30;;;;;;5049675;28;20311;-60
2024/01/12 07:58:05;;;;;;;33.93;19.83;;;-3.60;68.00;;;;;;5042346;28;20352;-61
2024/01/12 08:00:32;;;;;;;34.27;19.90;;;-3.50;68.10;;;;;;5046016;28;20203;-61
2024/01/12 08:02:59;;;;;;;32.73;19.70;;;-3.50;67.90;;;;;;5039173;28;20268;-60
2024/01/12 08:05:25;;;;;;;34.37;19.90;;;-3.50;67.50;;;;;;5033443;28;20245;-55
2024/01/12 08:07:52;;;;;;;37.10;21.73;;;-3.50;67.80;;;;;;5035466;28;20206;-61
2024/01/12 08:10:18;;;;;;;29.93;19.60;;;-3.40;67.40;;;;;;5036920;28;20239;-60
2024/01/12 08:12:45;;;;;;;40.87;21.70;;;-3.40;67.10;;;;;;5034877;28;20209;-59
2024/01/12 08:15:12;;;;;;;33.00;20.37;;;-3.30;66.80;;;;;;5033365;28;20258;-60
2024/01/12 08:17:38;;;;;;;38.87;21.67;;;-3.40;66.80;;;;;;5038402;28;20756;-59
2024/01/12 08:20:05;;;;;;;35.03;20.67;;;-3.40;66.50;;;;;;5045034;28;20209;-62
2024/01/12 08:22:32;;;;;;;32.73;20.63;;;-3.40;66.20;;;;;;5029764;28;20279;-59
2024/01/12 08:24:58;;;;;;;32.87;21.07;;;-3.40;66.20;;;;;;5037108;28;20209;-59
2024/01/12 08:27:25;;;;;;;36.13;21.97;;;-3.30;66.40;;;;;;5038933;28;20272;-62
2024/01/12 08:29:51;;;;;;;34.83;21.87;;;-3.30;66.20;;;;;;5031368;28;20382;-63
2024/01/12 08:32:18;;;;;;;39.80;22.40;;;-3.10;65.80;;;;;;5025648;28;20245;-58
2024/01/12 08:34:44;;;;;;;38.90;22.83;;;-3.00;65.40;;;;;;5034533;28;20203;-55
2024/01/12 08:37:11;;;;;;;36.63;22.33;;;-3.00;64.30;;;;;;5029808;28;20233;-58
2024/01/12 08:39:37;;;;;;;35.03;21.90;;;-2.90;63.50;;;;;;5046440;28;20367;-59
2024/01/12 08:42:04;;;;;;;37.53;21.67;;;-2.80;63.70;;;;;;5033399;28;20262;-55
2024/01/12 08:44:30;;;;;;;40.53;23.40;;;-2.50;61.90;;;;;;5043653;28;20669;-60
2024/01/12 08:46:57;;;;;;;43.10;24.77;;;-2.30;61.20;;;;;;5032847;28;20226;-58
2024/01/12 08:49:23;;;;;;;39.20;23.80;;;-2.30;59.60;;;;;;5040809;28;20249;-58
2024/01/12 08:51:51;;;;;;;38.87;23.73;;;-2.00;59.90;;;;;;5033500;28;20270;-61
2024/01/12 08:54:17;;;;;;;38.17;24.10;;;-1.50;57.90;;;;;;5030849;28;20685;-58
2024/01/12 08:56:44;;;;;;;41.90;24.70;;;-1.20;56.70;;;;;;5043447;28;20253;-58
2024/01/12 08:59:10;;;;;;;45.83;27.60;;;-1.00;57.30;;;;;;5042024;28;20235;-58
2024/01/12 09:01:37;;;;;;;37.33;24.40;;;-0.80;57.00;;;;;;5037219;28;20218;-57
2024/01/12 09:04:03;;;;;;;42.33;23.80;;;-0.90;56.90;;;;;;5042477;28;20694;-57
2024/01/12 09:06:30;;;;;;;37.40;22.77;;;-1.10;55.70;;;;;;5039183;28;20932;-57
2024/01/12 09:08:56;;;;;;;38.10;23.57;;;-0.90;54.30;;;;;;5008672;28;20788;-57
2024/01/12 09:11:23;;;;;;;36.20;24.00;;;-1.10;55.70;;;;;;5037746;28;20201;-59
2024/01/12 09:13:49;;;;;;;37.47;23.60;;;-1.20;55.50;;;;;;5030450;28;20581;-56
2024/01/12 09:16:16;;;;;;;37.33;22.83;;;-0.90;55.40;;;;;;5013059;28;20255;-57
2024/01/12 09:18:43;;;;;;;41.13;25.47;;;-0.70;55.40;;;;;;5018760;28;20678;-58
2024/01/12 09:21:14;;;;;;;38.87;23.73;;;-0.80;55.10;;;;;;5027375;28;20213;-59
2024/01/12 09:23:41;;;;;;;41.33;24.20;;;-0.90;54.70;;;;;;5038152;28;20236;-57
2024/01/12 09:26:08;;;;;;;41.97;25.70;;;-0.90;55.00;;;;;;5044808;28;20592;-58
2024/01/12 09:28:35;;;;;;;39.13;23.77;;;-0.70;54.30;;;;;;5038413;28;20213;-58
2024/01/12 09:31:01;;;;;;;42.13;26.67;;;-0.50;53.60;;;;;;5027801;28;20241;-57
2024/01/12 09:33:28;;;;;;;37.07;23.80;;;-0.50;53.10;;;;;;5031615;28;20206;-61
2024/01/12 09:35:54;;;;;;;43.73;25.33;;;0.10;52.10;;;;;;5045756;28;20237;-61
2024/01/12 09:38:21;;;;;;;40.80;23.90;;;-0.10;51.30;;;;;;5051180;28;20306;-60
2024/01/12 09:40:48;;;;;;;40.07;25.33;;;0.10;51.90;;;;;;5067193;28;20343;-61
2024/01/12 09:43:14;;;;;;;41.23;24.23;;;0.40;51.30;;;;;;5070492;28;20221;-61
2024/01/12 09:45:41;;;;;;;37.93;24.33;;;0.30;50.80;;;;;;5078529;28;20703;-60
2024/01/12 09:48:07;;;;;;;38.37;25.23;;;0.20;50.80;;;;;;5072379;28;20205;-57
2024/01/12 09:50:34;;;;;;;39.53;25.73;;;0.50;51.00;;;;;;5070106;28;20278;-55
2024/01/12 09:53:00;;;;;;;40.37;25.80;;;0.40;50.90;;;;;;5069284;28;20221;-55
2024/01/12 09:55:27;;;;;;;41.87;24.97;;;0.60;50.60;;;;;;5070497;28;20486;-58
2024/01/12 09:57:53;;;;;;;41.77;24.67;;;0.90;50.30;;;;;;5074730;28;20213;-59
2024/01/12 10:00:20;;;;;;;41.20;27.50;;;0.80;50.00;;;;;;5082003;28;20213;-55
2024/01/12 10:02:47;;;;;;;45.53;26.93;;;0.70;49.80;;;;;;5078288;28;20632;-54
2024/01/12 10:05:13;;;;;;;43.00;26.83;;;0.60;50.60;;;;;;5081758;28;20229;-61
2024/01/12 10:07:40;;;;;;;41.50;24.97;;;1.00;49.90;;;;;;5070356;28;20695;-59
2024/01/12 10:10:06;;;;;;;45.97;27.90;;;0.50;49.70;;;;;;5086440;28;20209;-57
2024/01/12 10:12:33;;;;;;;46.97;27.20;;;0.60;50.00;;;;;;5081221;28;20667;-57
2024/01/12 10:14:59;;;;;;;41.20;25.57;;;0.90;49.60;;;;;;5074747;28;20198;-55
2024/01/12 10:17:26;;;;;;;40.83;26.03;;;1.20;49.30;;;;;;5073269;28;20457;-58
2024/01/12 10:19:52;;;;;;;46.83;27.63;;;1.50;47.40;;;;;;5071716;28;20210;-60
2024/01/12 10:22:19;;;;;;;42.80;27.10;;;1.60;47.50;;;;;;5074708;28;20244;-60
2024/01/12 10:24:45;;;;;;;45.03;27.97;;;1.30;48.20;;;;;;5070012;28;20568;-58
2024/01/12 10:27:11;;;;;;;39.33;25.57;;;1.80;47.70;;;;;;5071015;28;20212;-58
2024/01/12 10:29:39;;;;;;;43.33;27.20;;;2.00;47.20;;;;;;5080137;28;20197;-58
2024/01/12 10:32:05;;;;;;;46.70;29.67;;;1.90;47.80;;;;;;5084805;28;20225;-59
2024/01/12 10:34:33;;;;;;;52.27;32.00;;;1.90;47.50;;;;;;5075676;28;20255;-54
2024/01/12 10:37:00;;;;;;;47.10;30.63;;;2.10;47.50;;;;;;5085555;28;20699;-57
2024/01/12 10:39:27;;;;;;;43.37;26.30;;;1.80;47.20;;;;;;5082085;28;20260;-57
2024/01/12 10:41:53;;;;;;;45.80;26.83;;;2.20;47.10;;;;;;5068610;28;20666;-60
2024/01/12 10:44:20;;;;;;;48.90;28.60;;;2.00;46.60;;;;;;5080092;28;20317;-57
2024/01/12 10:46:47;;;;;;;42.80;25.83;;;2.60;46.70;;;;;;5087319;28;20267;-54
2024/01/12 10:49:14;;;;;;;42.33;27.77;;;2.60;46.00;;;;;;5078308;28;20452;-58
2024/01/12 10:51:40;;;;;;;44.23;25.77;;;2.10;46.00;;;;;;5074611;28;20301;-59
2024/01/12 10:54:07;;;;;;;39.07;25.80;;;2.10;47.00;;;;;;5084742;28;20198;-55
2024/01/12 10:56:35;;;;;;;42.67;27.13;;;2.10;46.30;;;;;;5082963;28;20231;-55
2024/01/12 10:59:02;;;;;;;39.67;26.43;;;1.80;46.30;;;;;;5085260;28;20254;-61
2024/01/12 11:01:28;;;;;;;45.90;27.13;;;2.20;45.80;;;;;;5082307;28;20216;-58
2024/01/12 11:03:55;;;;;;;43.33;27.27;;;1.90;45.90;;;;;;5084952;28;20257;-59
2024/01/12 11:06:21;;;;;;;47.10;30.07;;;2.10;46.20;;;;;;5084818;28;20226;-57
2024/01/12 11:08:50;;;;;;;45.10;27.00;;;1.60;46.80;;;;;;5081033;28;20219;-55
2024/01/12 11:11:17;;;;;;;44.70;27.80;;;1.60;46.40;;;;;;5072089;28;20208;-59
2024/01/12 11:13:43;;;;;;;45.60;28.93;;;2.40;45.50;;;;;;5085448;28;20222;-58
2024/01/12 11:16:10;;;;;;;45.87;28.93;;;2.40;45.20;;;;;;5080391;28;20261;-56
2024/01/12 11:18:37;;;;;;;46.93;27.87;;;2.60;44.20;;;;;;5080374;28;20203;-57
2024/01/12 11:21:03;;;;;;;46.77;29.33;;;2.40;45.10;;;;;;5084050;28;20249;-58
2024/01/12 11:23:30;;;;;;;43.83;29.23;;;2.50;44.50;;;;;;5083583;28;20693;-59
2024/01/12 11:25:56;;;;;;;44.33;28.37;;;2.20;44.60;;;;;;5080370;28;20276;-58
2024/01/12 11:28:23;;;;;;;46.27;29.47;;;2.80;44.00;;;;;;5065386;28;20223;-58
2024/01/12 11:30:49;;;;;;;44.80;29.27;;;2.20;44.30;;;;;;5066166;28;20250;-59
2024/01/12 11:33:16;;;;;;;48.43;28.90;;;2.40;45.40;;;;;;5066736;28;20675;-58
2024/01/12 11:35:42;;;;;;;47.47;30.23;;;2.80;44.00;;;;;;5067050;28;20280;-56
2024/01/12 11:38:09;;;;;;;45.97;29.87;;;2.70;44.00;;;;;;5074130;28;20607;-57
2024/01/12 11:40:35;;;;;;;45.93;28.37;;;2.60;44.20;;;;;;5078284;28;20309;-58
2024/01/12 11:43:02;;;;;;;45.90;29.80;;;2.40;44.30;;;;;;5071189;28;20262;-58
2024/01/12 11:45:28;;;;;;;46.63;30.37;;;2.50;44.40;;;;;;5076065;28;20228;-59
2024/01/12 11:47:55;;;;;;;45.97;30.17;;;2.90;43.70;;;;;;5074707;28;20207;-57
2024/01/12 11:50:24;;;;;;;46.90;29.77;;;2.60;43.90;;;;;;5075009;28;20206;-60
2024/01/12 11:52:51;;;;;;;48.47;28.63;;;2.20;45.90;;;;;;5082359;28;20293;-57
2024/01/12 11:55:19;;;;;;;48.37;29.47;;;1.40;44.90;;;;;;5072190;28;20270;-53
2024/01/12 11:57:46;;;;;;;47.77;28.67;;;0.70;47.30;;;;;;5050704;28;20235;-58
2024/01/12 12:00:12;;;;;;;47.57;30.03;;;1.90;47.00;;;;;;5032003;28;20234;-56
2024/01/12 12:02:39;;;;;;;46.43;30.20;;;2.20;44.70;;;;;;5024309;28;20633;-59
2024/01/12 12:05:06;;;;;;;47.97;30.47;;;2.20;45.10;;;;;;5033706;28;20256;-58
2024/01/12 12:07:35;;;;;;;44.37;29.73;;;2.20;45.60;;;;;;5028246;28;20218;-54
2024/01/12 12:10:02;;;;;;;49.77;31.43;;;2.40;43.90;;;;;;5026929;28;20582;-58
2024/01/12 12:12:28;;;;;;;50.07;29.67;;;1.90;45.70;;;;;;5045392;28;20291;-56
2024/01/12 12:14:55;;;;;;;54.30;31.70;;;1.80;45.10;;;;;;5035668;28;20202;-55
2024/01/12 12:17:22;;;;;;;50.27;30.40;;;1.80;45.40;;;;;;5030849;28;20679;-59
2024/01/12 12:19:48;;;;;;;52.40;30.10;;;1.90;45.70;;;;;;5036618;28;20276;-59
2024/01/12 12:22:15;;;;;;;52.33;31.77;;;2.00;45.50;;;;;;5043765;28;20235;-63
2024/01/12 12:24:41;;;;;;;51.20;31.37;;;1.90;45.20;;;;;;5028130;28;20647;-58